Anna Desgagnes — VCWS — position and weather

sailwx.info

Track history (hours):
 
Tides and Currents Weather Stations Pressure Air Temp Water Temp Dewpoint Dewpoint Depression Visibility Wind Speed Wind Dir Waves Ship Positions

Anna Desgagnes

Last reported at 2016-Dec-04 23:00 UTC. Time now 2016-Dec-05 00:25 UTC.
Position N 45°30' W 073°30'.

Length 173 m; draft 7 m.

Type: Ship. MMSI: 316297000.

Wind from 090 at 2 knots

Air temperature -0.4 ° C
Dewpoint -5.7 ° C

Date/timePositionNaut miles runAvg speedWind from/ knotsBaromVisibWave heightAir tempDewpointWater temp
2016-Dec-04 23:00N 45°30' W 073°30'0 0.0 090 / 2 -0.4-5.7
2016-Dec-04 22:00N 45°30' W 073°30'0 0.0 020 / 1 0.8-6.9
2016-Dec-04 21:00N 45°30' W 073°30'0 0.0 200 / 5 0.7-7.6
2016-Dec-04 20:00N 45°30' W 073°30'0 0.0 310 / 2 1.4-7.6
2016-Dec-04 19:00N 45°30' W 073°30'0 0.0 340 / 4 1.2-7.7
2016-Dec-04 18:00N 45°30' W 073°30'0 0.0 290 / 3 0.7-7.6
2016-Dec-04 17:00N 45°30' W 073°30'0 0.0 340 / 4 0.1-7.0
2016-Dec-04 16:00N 45°30' W 073°30'0 0.0 290 / 4 -0.7-7.0
2016-Dec-04 15:00N 45°30' W 073°30'0 0.0 320 / 6 -1.4-6.3
2016-Dec-04 14:00N 45°30' W 073°30'0 0.0 300 / 6 -1.9-6.4
2016-Dec-04 13:00N 45°30' W 073°30'0 0.0 310 / 6 -1.5-6.4
2016-Dec-04 12:00N 45°30' W 073°30'0 0.0 300 / 5 -1.1-6.5
2016-Dec-04 11:00N 45°30' W 073°30'0 0.0 300 / 6 -0.7-5.7
2016-Dec-04 10:00N 45°30' W 073°30'0 0.0 320 / 5 -0.7-6.1
2016-Dec-04 09:00N 45°30' W 073°30'0 0.0 320 / 6 -0.6-6.4
2016-Dec-04 08:00N 45°30' W 073°30'0 0.0 330 / 6 -0.2-6.0
2016-Dec-04 07:00N 45°30' W 073°30'0 0.0 310 / 7 -0.1-6.0
2016-Dec-04 06:00N 45°30' W 073°30'0 0.0 330 / 7 -0.1-6.1
2016-Dec-04 05:00N 45°30' W 073°30'0 0.0 350 / 8 -0.0-6.3
2016-Dec-04 04:00N 45°30' W 073°30'0 0.0 330 / 9 0.1-6.7
2016-Dec-04 03:00N 45°30' W 073°30'0 0.0 330 / 9 0.3-6.6
2016-Dec-04 02:00N 45°30' W 073°30'0 0.0 320 / 7 0.8-5.6
2016-Dec-04 01:00N 45°30' W 073°30'0 0.0 300 / 7 0.8-5.4
2016-Dec-04 00:00N 45°30' W 073°30'0 0.0 290 / 9 0.9-5.2
2016-Dec-03 23:00N 45°30' W 073°30'0 0.0 300 / 8 1.3-4.8
2016-Dec-03 22:00N 45°30' W 073°30'0 0.0 290 / 10 1.6-4.7
2016-Dec-03 21:00N 45°30' W 073°30'0 0.0 290 / 12 1.7-4.6
2016-Dec-03 20:00N 45°30' W 073°30'0 0.0 300 / 11 2.3-4.2
2016-Dec-03 19:00N 45°30' W 073°30'0 0.0 300 / 12 2.8-3.6
2016-Dec-03 18:00N 45°30' W 073°30'0 0.0 300 / 9 2.7-2.7
2016-Dec-03 17:00N 45°30' W 073°30'0 0.0 300 / 6 2.1-0.8
2016-Dec-03 16:00N 45°30' W 073°30'0 0.0 310 / 11 1.8-1.0
2016-Dec-03 15:00N 45°30' W 073°30'0 0.0 320 / 12 2.4-1.7
2016-Dec-03 14:00N 45°30' W 073°30'0 0.0 290 / 7 2.1-1.2
2016-Dec-03 13:00N 45°30' W 073°30'0 0.0 300 / 7 1.4 0.1
2016-Dec-03 12:00N 45°30' W 073°30'0 0.0 280 / 4 2.4-0.7
2016-Dec-03 11:00N 45°30' W 073°30'0 0.0 240 / 5 2.4-0.8
2016-Dec-03 10:00N 45°30' W 073°30'0 0.0 280 / 5 2.6-0.9
2016-Dec-03 09:00N 45°30' W 073°30'0 0.0 270 / 4 2.6-0.9
2016-Dec-03 08:00N 45°30' W 073°30'0 0.0 250 / 7 2.6-1.0
2016-Dec-03 07:00N 45°30' W 073°30'0 0.0 270 / 5 2.7-0.8
2016-Dec-03 06:00N 45°30' W 073°30'0 0.0 240 / 9 2.5-0.7
2016-Dec-03 05:00N 45°30' W 073°30'0 0.0 250 / 7 2.7-0.6
2016-Dec-03 04:00N 45°30' W 073°30'0 0.0 260 / 6 2.7-0.4
2016-Dec-03 03:00N 45°30' W 073°30'0 0.0 240 / 6 2.7-0.3
2016-Dec-03 02:00N 45°30' W 073°30'0 0.0 240 / 7 2.8-0.3
2016-Dec-03 01:00N 45°30' W 073°30'0 0.0 240 / 8 2.9-0.4
2016-Dec-03 00:00N 45°30' W 073°30'0 0.0 230 / 6 3.0-0.1
2016-Dec-02 23:00N 45°30' W 073°30'0 0.0 250 / 8 3.3-0.4
2016-Dec-02 22:00N 45°30' W 073°30'0 0.0 250 / 8 3.6-0.5
2016-Dec-02 20:00N 45°30' W 073°30'0 0.0 280 / 6 3.2 1.2
2016-Dec-02 19:00N 45°30' W 073°30'0 0.0 280 / 4 4.0 1.9
2016-Dec-02 18:00N 45°30' W 073°30'0 0.0 260 / 4 4.7 2.5
2016-Dec-02 17:00N 45°30' W 073°30'0 0.0 240 / 8 5.2 3.0
2016-Dec-02 16:00N 45°30' W 073°30'0 0.0 210 / 9 5.6 4.0
2016-Dec-02 15:00N 45°30' W 073°30'0 0.0 200 / 9 5.6 3.8
2016-Dec-02 14:00N 45°30' W 073°30'0 0.0 200 / 9 5.1 3.6
2016-Dec-02 13:00N 45°30' W 073°30'0 0.0 200 / 8 5.2 3.1
2016-Dec-02 12:00N 45°30' W 073°30'0 0.0 200 / 6 5.2 3.0
2016-Dec-02 11:00N 45°30' W 073°30'0 0.0 200 / 8 5.1 3.1
2016-Dec-02 10:00N 45°30' W 073°30'0 0.0 200 / 7 5.0 2.6
2016-Dec-02 09:00N 45°30' W 073°30'0 0.0 200 / 8 4.9 2.7
2016-Dec-02 08:00N 45°30' W 073°30'0 0.0 200 / 8 5.0 2.8
2016-Dec-02 07:00N 45°30' W 073°30'0 0.0 210 / 6 5.5 2.3
2016-Dec-02 06:00N 45°30' W 073°30'0 0.0 220 / 9 5.4 2.1
2016-Dec-02 05:00N 45°30' W 073°30'0 0.0 230 / 8 5.4 2.2
2016-Dec-02 04:00N 45°30' W 073°30'0 0.0 240 / 7 5.3 2.5
2016-Dec-02 03:00N 45°30' W 073°30'0 0.0 230 / 9 5.4 2.7
2016-Dec-02 02:00N 45°30' W 073°30'0 0.0 230 / 10 5.3 2.8
2016-Dec-02 01:00N 45°30' W 073°30'0 0.0 230 / 11 5.1 3.1
2016-Dec-02 00:00N 45°30' W 073°30'0 0.0 230 / 12 5.1 3.2
2016-Dec-01 23:00N 45°30' W 073°30'0 0.0 220 / 9 5.4 3.7
2016-Dec-01 22:00N 45°30' W 073°30'0 0.0 220 / 11 6.1 3.0
2016-Dec-01 21:00N 45°30' W 073°30'0 0.0 220 / 10 6.8 2.8
2016-Dec-01 20:00N 45°30' W 073°30'0 0.0 210 / 9 6.8 4.1
2016-Dec-01 19:00N 45°30' W 073°30'0 0.0 210 / 13 7.3 4.3
2016-Dec-01 18:00N 45°30' W 073°30'0 0.0 210 / 11 7.0 4.7
2016-Dec-01 17:00N 45°30' W 073°30'0 0.0 210 / 11 7.3 4.8
2016-Dec-01 16:00N 45°30' W 073°30'0 0.0 210 / 11 8.0 6.0
2016-Dec-01 15:00N 45°30' W 073°30'0 0.0 220 / 5 8.0 7.2
2016-Dec-01 14:00N 45°30' W 073°30'0 0.0 200 / 11 9.0 6.8
2016-Dec-01 13:00N 45°30' W 073°30'0 0.0 170 / 6 8.5 8.4
2016-Dec-01 12:00N 45°30' W 073°30'0 0.0 170 / 7 8.5 8.4
2016-Dec-01 11:00N 45°30' W 073°30'0 0.0 150 / 7 7.9 7.8
2016-Dec-01 10:00N 45°30' W 073°30'0 0.0 090 / 5 5.8 5.8
2016-Dec-01 09:00N 45°30' W 073°30'0 0.0 030 / 3 5.7 5.7
2016-Dec-01 08:00N 45°30' W 073°30'0 0.0 020 / 3 6.4 6.4
2016-Dec-01 07:00N 45°30' W 073°30'0 0.0 100 / 5 7.8 5.6
2016-Dec-01 06:00N 45°30' W 073°30'0 0.0 110 / 6 7.4 6.3
2016-Dec-01 05:00N 45°30' W 073°30'0 0.0 100 / 5 8.0 7.0
2016-Dec-01 04:00N 45°30' W 073°30'0 0.0 090 / 6 7.9 7.9
2016-Dec-01 03:00N 45°30' W 073°30'0 0.0 090 / 6 8.4 8.4
2016-Dec-01 01:00N 45°30' W 073°30'0 0.0 350 / 6 5.2 5.2
2016-Dec-01 00:00N 45°30' W 073°30'0 0.0 350 / 5 5.8 5.8
2016-Nov-30 23:00N 45°30' W 073°30'0 0.0 010 / 6 5.7 5.7
2016-Nov-30 22:00N 45°30' W 073°30'0 0.0 360 / 6 5.2 5.2
2016-Nov-30 21:00N 45°30' W 073°30'0 0.0 360 / 7 4.2 4.2
2016-Nov-30 20:00N 45°30' W 073°30'0 0.0 360 / 8 3.8 3.9
2016-Nov-30 19:00N 45°30' W 073°30'0 0.0 010 / 5 3.5 3.5
2016-Nov-30 18:00N 45°30' W 073°30'0 0.0 360 / 7 2.9 2.9
2016-Nov-30 17:00N 45°30' W 073°30'0 0.0 360 / 7 2.6 2.7
2016-Nov-30 16:00N 45°30' W 073°30'0 0.0 360 / 4 2.5 2.6
2016-Nov-30 15:00N 45°30' W 073°30'0 0.0 030 / 5 2.3 2.4
2016-Nov-30 14:00N 45°30' W 073°30'0 0.0 020 / 5 2.1 2.2
2016-Nov-30 13:00N 45°30' W 073°30'0 0.0 360 / 7 2.0 2.1
2016-Nov-30 12:00N 45°30' W 073°30'0 0.0 360 / 7 2.0 2.1
2016-Nov-30 11:00N 45°30' W 073°30'0 0.0 360 / 6 2.1 2.1
2016-Nov-30 10:00N 45°30' W 073°30'0 0.0 010 / 4 2.1 2.1
2016-Nov-30 09:00N 45°30' W 073°30'0 0.0 350 / 6 1.9 1.9
2016-Nov-30 08:00N 45°30' W 073°30'0 0.0 360 / 6 2.0 2.0
2016-Nov-30 07:00N 45°30' W 073°30'0 0.0 360 / 4 1.8 1.9
2016-Nov-30 06:00N 45°30' W 073°30'0 0.0 350 / 9 1.8 1.8
2016-Nov-30 05:00N 45°30' W 073°30'0 0.0 350 / 9 1.8 1.8
2016-Nov-30 04:00N 45°30' W 073°30'0 0.0 350 / 9 2.2 2.3
2016-Nov-30 03:00N 45°30' W 073°30'0 0.0 340 / 9 2.7 2.7
2016-Nov-30 02:00N 45°30' W 073°30'0 0.0 360 / 9 2.7 2.8
2016-Nov-30 01:00N 45°30' W 073°30'0 0.0 350 / 11 2.5 2.6
2016-Nov-30 00:00N 45°30' W 073°30'0 0.0 350 / 9 2.4 2.5
2016-Nov-29 23:00N 45°30' W 073°30'0 0.0 350 / 9 2.6 2.6
2016-Nov-29 22:00N 45°30' W 073°30'0 0.0 350 / 8 2.5 2.5
2016-Nov-29 21:00N 45°30' W 073°30'0 0.0 350 / 9 2.5 2.5
2016-Nov-29 20:00N 45°30' W 073°30'0 0.0 350 / 8 2.1 2.2
2016-Nov-29 19:00N 45°30' W 073°30'0 0.0 350 / 7 2.1 2.1
2016-Nov-29 18:00N 45°30' W 073°30'0 0.0 350 / 4 1.6 1.6
2016-Nov-29 17:00N 45°30' W 073°30'0 0.0 360 / 6 1.3 1.3
2016-Nov-29 16:00N 45°30' W 073°30'0 0.0 360 / 6 0.9 0.8
2016-Nov-29 15:00N 45°30' W 073°30'0 0.0 010 / 4 0.6 0.5
2016-Nov-29 14:00N 45°30' W 073°30'0 0.0 010 / 4 -0.1-0.9
2016-Nov-29 13:00N 45°30' W 073°30'0 0.0 360 / 8 -0.2-2.6
2016-Nov-29 12:00N 45°30' W 073°30'0 0.0 010 / 5 -0.6-3.1
2016-Nov-29 11:00N 45°30' W 073°30'0 0.0 360 / 8 -1.0-3.3
2016-Nov-29 10:00N 45°30' W 073°30'0 0.0 360 / 8 -1.1-3.2
2016-Nov-29 09:00N 45°30' W 073°30'0 0.0 020 / 6 -1.2-3.3
2016-Nov-29 08:00N 45°30' W 073°30'0 0.0 020 / 5 -1.1-3.3
2016-Nov-29 07:00N 45°30' W 073°30'0 0.0 010 / 6 -1.2-3.3
2016-Nov-29 06:00N 45°30' W 073°30'0 0.0 010 / 5 -1.2-3.4
2016-Nov-29 05:00N 45°30' W 073°30'0 0.0 010 / 4 -1.6-3.5
2016-Nov-29 04:00N 45°30' W 073°30'0 0.0 360 / 4 -1.5-3.7
2016-Nov-29 03:00N 45°30' W 073°30'0 0.0 020 / 6 -1.6-3.7
2016-Nov-29 02:00N 45°30' W 073°30'0 0.0 020 / 6 -1.5-3.9
2016-Nov-29 01:00N 45°30' W 073°30'0 0.0 020 / 6 -1.2-4.0
2016-Nov-29 00:00N 45°30' W 073°30'0 0.0 020 / 4 -1.1-4.0
2016-Nov-28 23:00N 45°30' W 073°30'0 0.0 090 / 3 -0.9-4.2
2016-Nov-28 22:00N 45°30' W 073°30'0 0.0 110 / 1 -0.6-4.2
2016-Nov-28 21:00N 45°30' W 073°30'0 0.0 090 / 1 -0.2-4.3
2016-Nov-28 20:00N 45°30' W 073°30'0 0.0 110 / 2 -0.0-4.5
2016-Nov-28 19:00N 45°30' W 073°30'0 0.0 190 / 3 -0.3-5.0
2016-Nov-28 18:00N 45°30' W 073°30'0 0.0 210 / 5 -1.2-5.2
2016-Nov-28 17:00N 45°30' W 073°30'0 0.0 180 / 4 -0.8-4.6
2016-Nov-28 16:00N 45°30' W 073°30'0 0.0 190 / 3 -1.0-5.1
2016-Nov-28 15:00N 45°30' W 073°30'0 0.0 310 / 3 -1.1-5.4
2016-Nov-28 14:00N 45°30' W 073°30'0 0.0 310 / 5 -1.1-5.1
2016-Nov-28 13:00N 45°30' W 073°30'0 0.0 330 / 6 -0.8-5.2
2016-Nov-28 12:00N 45°30' W 073°30'0 0.0 310 / 5 -0.6-5.4
2016-Nov-28 11:00N 45°30' W 073°30'0 0.0 250 / 5 -0.9-5.9
2016-Nov-28 10:00N 45°30' W 073°30'0 0.0 230 / 3 -0.7-5.3
2016-Nov-28 09:00N 45°30' W 073°30'0 0.0 330 / 7 -0.5-5.6
2016-Nov-28 08:00N 45°30' W 073°30'0 0.0 280 / 5 -0.4-5.7
2016-Nov-28 07:00N 45°30' W 073°30'0 0.0 330 / 6 -0.1-5.2
2016-Nov-28 06:00N 45°30' W 073°30'0 0.0 260 / 3 -0.0-5.3
2016-Nov-28 05:00N 45°30' W 073°30'0 0.0 300 / 2 0.3-4.7
2016-Nov-28 04:00N 45°30' W 073°30'0 0.0 270 / 4 0.4-4.4
2016-Nov-28 03:00N 45°30' W 073°30'0 0.0 290 / 8 0.5-4.1
2016-Nov-28 02:00N 45°30' W 073°30'0 0.0 300 / 8 0.7-3.7
2016-Nov-28 01:00N 45°30' W 073°30'0 0.0 300 / 6 1.0-3.5
2016-Nov-28 00:00N 45°30' W 073°30'0 0.0 240 / 6 1.2-3.5
2016-Nov-27 23:00N 45°30' W 073°30'0 0.0 270 / 3 1.4-2.4
2016-Nov-27 22:00N 45°30' W 073°30'0 0.0 270 / 4 1.5-2.2
2016-Nov-27 21:00N 45°30' W 073°30'0 0.0 240 / 6 1.4-1.7
2016-Nov-27 20:00N 45°30' W 073°30'0 0.0 230 / 5 1.6-1.6
2016-Nov-27 19:00N 45°30' W 073°30'0 0.0 240 / 4 2.1-2.7
2016-Nov-27 18:00N 45°30' W 073°30'0 0.0 300 / 4 2.1-2.4
2016-Nov-27 17:00N 45°30' W 073°30'0 0.0 300 / 8 1.7-2.7
2016-Nov-27 16:00N 45°30' W 073°30'0 0.0 280 / 3 1.7-2.2
2016-Nov-27 15:00N 45°30' W 073°30'0 0.0 300 / 6 1.5-1.9
2016-Nov-27 14:00N 45°30' W 073°30'0 0.0 290 / 7 1.0-1.7
2016-Nov-27 13:00N 45°30' W 073°30'0 0.0 290 / 3 1.1-1.5
2016-Nov-27 12:00N 45°30' W 073°30'0 0.0 230 / 2 1.1-2.0
2016-Nov-27 11:00N 45°30' W 073°30'0 0.0 290 / 6 1.3-2.3
2016-Nov-27 10:00N 45°30' W 073°30'0 0.0 290 / 8 1.1-2.1
2016-Nov-27 09:00N 45°30' W 073°30'0 0.0 310 / 5 1.3-1.3
2016-Nov-27 08:00N 45°30' W 073°30'0 0.0 240 / 4 1.5-1.5
2016-Nov-27 07:00N 45°30' W 073°30'0 0.0 240 / 5 1.4-1.2
2016-Nov-27 06:00N 45°30' W 073°30'0 0.0 250 / 5 1.4-0.8
2016-Nov-27 05:00N 45°30' W 073°30'0 0.0 240 / 5 1.6-0.9
2016-Nov-27 04:00N 45°30' W 073°30'0 0.0 240 / 5 1.8-0.7
2016-Nov-27 03:00N 45°30' W 073°30'0 0.0 250 / 4 1.9-0.6
2016-Nov-27 02:00N 45°30' W 073°30'0 0.0 250 / 3 2.0-0.2
2016-Nov-27 01:00N 45°30' W 073°30'0 0.0 230 / 7 1.8-0.2
2016-Nov-27 00:00N 45°30' W 073°30'0 0.0 240 / 6 2.1-0.1
2016-Nov-26 23:00N 45°30' W 073°30'0 0.0 210 / 6 2.2-0.2
2016-Nov-26 22:00N 45°30' W 073°30'0 0.0 210 / 6 2.2-0.4
2016-Nov-26 21:00N 45°30' W 073°30'0 0.0 230 / 6 2.2 0.5
2016-Nov-26 20:00N 45°30' W 073°30'0 0.0 230 / 6 2.5 1.3
2016-Nov-26 19:00N 45°30' W 073°30'0 0.0 230 / 5 2.5 2.0
2016-Nov-26 18:00N 45°30' W 073°30'0 0.0 230 / 5 2.5 2.1
2016-Nov-26 17:00N 45°30' W 073°30'0 0.0 240 / 5 2.6 2.4
2016-Nov-26 16:00N 45°30' W 073°30'0 0.0 230 / 3 2.8 2.8
2016-Nov-26 15:00N 45°30' W 073°30'0 0.0 170 / 3 3.1 3.1
2016-Nov-26 14:00N 45°30' W 073°30'0 0.0 180 / 3 2.6 2.6
2016-Nov-26 13:00N 45°30' W 073°30'0 0.0 180 / 3 2.4 2.5
2016-Nov-26 12:00N 45°30' W 073°30'0 0.0 180 / 2 2.5 2.6
2016-Nov-26 11:00N 45°30' W 073°30'0 0.0 150 / 2 2.7 2.7
2016-Nov-26 10:00N 45°30' W 073°30'0 0.0 180 / 2 2.3 2.3
2016-Nov-26 09:00N 45°30' W 073°30'0 0.0 160 / 2 2.5 2.5
2016-Nov-26 08:00N 45°30' W 073°30'0 0.0 170 / 1 2.2 2.2
2016-Nov-26 07:00N 45°30' W 073°30'0 0.0 190 / 4 1.6 1.6
2016-Nov-26 06:00N 45°30' W 073°30'0 0.0 170 / 3 2.1 2.1
2016-Nov-26 05:00N 45°30' W 073°30'0 0.0 180 / 4 2.1 2.1
2016-Nov-26 04:00N 45°30' W 073°30'0 0.0 170 / 4 2.4 2.3
2016-Nov-26 03:00N 45°30' W 073°30'0 0.0 170 / 3 2.1 2.1
2016-Nov-26 02:00N 45°30' W 073°30'0 0.0 150 / 3 2.2 2.1
2016-Nov-26 01:00N 45°30' W 073°30'0 0.0 110 / 1 2.0 2.0
2016-Nov-26 00:00N 45°30' W 073°30'0 0.0 140 / 1 2.1 2.1
2016-Nov-25 23:00N 45°30' W 073°30'0 0.0 360 / 2 1.5 1.5
2016-Nov-25 22:00N 45°30' W 073°30'0 0.0 350 / 2 1.2 1.2
2016-Nov-25 21:00N 45°30' W 073°30'0 0.0 010 / 3 1.2 1.2
2016-Nov-25 20:00N 45°30' W 073°30'0 0.0 360 / 4 1.0 1.1
2016-Nov-25 19:00N 45°30' W 073°30'0 0.0 350 / 6 0.9 0.9
2016-Nov-25 18:00N 45°30' W 073°30'0 0.0 350 / 5 0.6 0.6
2016-Nov-25 17:00N 45°30' W 073°30'0 0.0 360 / 5 0.6 0.6
2016-Nov-25 16:00N 45°30' W 073°30'0 0.0 360 / 6 0.6 0.6
2016-Nov-25 15:00N 45°30' W 073°30'0 0.0 360 / 7 0.5 0.5
2016-Nov-25 14:00N 45°30' W 073°30'0 0.0 360 / 5 0.5 0.5
2016-Nov-25 13:00N 45°30' W 073°30'0 0.0 360 / 5 0.5 0.5
2016-Nov-25 12:00N 45°30' W 073°30'0 0.0 360 / 5 0.5 0.5
2016-Nov-25 11:00N 45°30' W 073°30'0 0.0 350 / 5 0.3 0.3
2016-Nov-25 10:00N 45°30' W 073°30'0 0.0 350 / 6 0.3 0.3
2016-Nov-25 09:00N 45°30' W 073°30'0 0.0 360 / 4 0.8 0.7
2016-Nov-25 08:00N 45°30' W 073°30'0 0.0 360 / 4 0.9 0.8
2016-Nov-25 07:00N 45°30' W 073°30'0 0.0 350 / 4 0.9 0.8
2016-Nov-25 06:00N 45°30' W 073°30'0 0.0 360 / 4 0.9 0.8
2016-Nov-25 05:00N 45°30' W 073°30'0 0.0 360 / 3 0.7 0.7
2016-Nov-25 04:00N 45°30' W 073°30'0 0.0 360 / 3 0.7 0.6
2016-Nov-25 03:00N 45°30' W 073°30'0 0.0 020 / 4 0.5 0.5
2016-Nov-25 02:00N 45°30' W 073°30'0 0.0 360 / 3 0.4 0.4
2016-Nov-25 01:00N 45°30' W 073°30'0 0.0 360 / 4 0.3 0.3
2016-Nov-25 00:00N 45°30' W 073°30'0 0.0 360 / 4 0.3 0.3
2016-Nov-24 23:00N 45°30' W 073°30'   010 / 4 0.2 0.2
Track history (hours):
 
Tides and Currents Weather Stations Pressure Air Temp Water Temp Dewpoint Dewpoint Depression Visibility Wind Speed Wind Dir Waves Ship Positions

Anna Desgagnes

Last reported at 2016-Dec-04 23:00 UTC. Time now 2016-Dec-05 00:25 UTC.
Position N 45°30' W 073°30'.

Length 173 m; draft 7 m.

Type: Ship. MMSI: 316297000.

Wind from 090 at 2 knots

Air temperature -0.4 ° C
Dewpoint -5.7 ° C

Date/timePositionNaut miles runAvg speedWind from/ knotsBaromVisibWave heightAir tempDewpointWater temp
2016-Dec-04 23:00N 45°30' W 073°30'0 0.0 090 / 2 -0.4-5.7
2016-Dec-04 22:00N 45°30' W 073°30'0 0.0 020 / 1 0.8-6.9
2016-Dec-04 21:00N 45°30' W 073°30'0 0.0 200 / 5 0.7-7.6
2016-Dec-04 20:00N 45°30' W 073°30'0 0.0 310 / 2 1.4-7.6
2016-Dec-04 19:00N 45°30' W 073°30'0 0.0 340 / 4 1.2-7.7
2016-Dec-04 18:00N 45°30' W 073°30'0 0.0 290 / 3 0.7-7.6
2016-Dec-04 17:00N 45°30' W 073°30'0 0.0 340 / 4 0.1-7.0
2016-Dec-04 16:00N 45°30' W 073°30'0 0.0 290 / 4 -0.7-7.0
2016-Dec-04 15:00N 45°30' W 073°30'0 0.0 320 / 6 -1.4-6.3
2016-Dec-04 14:00N 45°30' W 073°30'0 0.0 300 / 6 -1.9-6.4
2016-Dec-04 13:00N 45°30' W 073°30'0 0.0 310 / 6 -1.5-6.4
2016-Dec-04 12:00N 45°30' W 073°30'0 0.0 300 / 5 -1.1-6.5
2016-Dec-04 11:00N 45°30' W 073°30'0 0.0 300 / 6 -0.7-5.7
2016-Dec-04 10:00N 45°30' W 073°30'0 0.0 320 / 5 -0.7-6.1
2016-Dec-04 09:00N 45°30' W 073°30'0 0.0 320 / 6 -0.6-6.4
2016-Dec-04 08:00N 45°30' W 073°30'0 0.0 330 / 6 -0.2-6.0
2016-Dec-04 07:00N 45°30' W 073°30'0 0.0 310 / 7 -0.1-6.0
2016-Dec-04 06:00N 45°30' W 073°30'0 0.0 330 / 7 -0.1-6.1
2016-Dec-04 05:00N 45°30' W 073°30'0 0.0 350 / 8 -0.0-6.3
2016-Dec-04 04:00N 45°30' W 073°30'0 0.0 330 / 9 0.1-6.7
2016-Dec-04 03:00N 45°30' W 073°30'0 0.0 330 / 9 0.3-6.6
2016-Dec-04 02:00N 45°30' W 073°30'0 0.0 320 / 7 0.8-5.6
2016-Dec-04 01:00N 45°30' W 073°30'0 0.0 300 / 7 0.8-5.4
2016-Dec-04 00:00N 45°30' W 073°30'0 0.0 290 / 9 0.9-5.2
2016-Dec-03 23:00N 45°30' W 073°30'0 0.0 300 / 8 1.3-4.8
2016-Dec-03 22:00N 45°30' W 073°30'0 0.0 290 / 10 1.6-4.7
2016-Dec-03 21:00N 45°30' W 073°30'0 0.0 290 / 12 1.7-4.6
2016-Dec-03 20:00N 45°30' W 073°30'0 0.0 300 / 11 2.3-4.2
2016-Dec-03 19:00N 45°30' W 073°30'0 0.0 300 / 12 2.8-3.6
2016-Dec-03 18:00N 45°30' W 073°30'0 0.0 300 / 9 2.7-2.7
2016-Dec-03 17:00N 45°30' W 073°30'0 0.0 300 / 6 2.1-0.8
2016-Dec-03 16:00N 45°30' W 073°30'0 0.0 310 / 11 1.8-1.0
2016-Dec-03 15:00N 45°30' W 073°30'0 0.0 320 / 12 2.4-1.7
2016-Dec-03 14:00N 45°30' W 073°30'0 0.0 290 / 7 2.1-1.2
2016-Dec-03 13:00N 45°30' W 073°30'0 0.0 300 / 7 1.4 0.1
2016-Dec-03 12:00N 45°30' W 073°30'0 0.0 280 / 4 2.4-0.7
2016-Dec-03 11:00N 45°30' W 073°30'0 0.0 240 / 5 2.4-0.8
2016-Dec-03 10:00N 45°30' W 073°30'0 0.0 280 / 5 2.6-0.9
2016-Dec-03 09:00N 45°30' W 073°30'0 0.0 270 / 4 2.6-0.9
2016-Dec-03 08:00N 45°30' W 073°30'0 0.0 250 / 7 2.6-1.0
2016-Dec-03 07:00N 45°30' W 073°30'0 0.0 270 / 5 2.7-0.8
2016-Dec-03 06:00N 45°30' W 073°30'0 0.0 240 / 9 2.5-0.7
2016-Dec-03 05:00N 45°30' W 073°30'0 0.0 250 / 7 2.7-0.6
2016-Dec-03 04:00N 45°30' W 073°30'0 0.0 260 / 6 2.7-0.4
2016-Dec-03 03:00N 45°30' W 073°30'0 0.0 240 / 6 2.7-0.3
2016-Dec-03 02:00N 45°30' W 073°30'0 0.0 240 / 7 2.8-0.3
2016-Dec-03 01:00N 45°30' W 073°30'0 0.0 240 / 8 2.9-0.4
2016-Dec-03 00:00N 45°30' W 073°30'0 0.0 230 / 6 3.0-0.1
2016-Dec-02 23:00N 45°30' W 073°30'0 0.0 250 / 8 3.3-0.4
2016-Dec-02 22:00N 45°30' W 073°30'0 0.0 250 / 8 3.6-0.5
2016-Dec-02 20:00N 45°30' W 073°30'0 0.0 280 / 6 3.2 1.2
2016-Dec-02 19:00N 45°30' W 073°30'0 0.0 280 / 4 4.0 1.9
2016-Dec-02 18:00N 45°30' W 073°30'0 0.0 260 / 4 4.7 2.5
2016-Dec-02 17:00N 45°30' W 073°30'0 0.0 240 / 8 5.2 3.0
2016-Dec-02 16:00N 45°30' W 073°30'0 0.0 210 / 9 5.6 4.0
2016-Dec-02 15:00N 45°30' W 073°30'0 0.0 200 / 9 5.6 3.8
2016-Dec-02 14:00N 45°30' W 073°30'0 0.0 200 / 9 5.1 3.6
2016-Dec-02 13:00N 45°30' W 073°30'0 0.0 200 / 8 5.2 3.1
2016-Dec-02 12:00N 45°30' W 073°30'0 0.0 200 / 6 5.2 3.0
2016-Dec-02 11:00N 45°30' W 073°30'0 0.0 200 / 8 5.1 3.1
2016-Dec-02 10:00N 45°30' W 073°30'0 0.0 200 / 7 5.0 2.6
2016-Dec-02 09:00N 45°30' W 073°30'0 0.0 200 / 8 4.9 2.7
2016-Dec-02 08:00N 45°30' W 073°30'0 0.0 200 / 8 5.0 2.8
2016-Dec-02 07:00N 45°30' W 073°30'0 0.0 210 / 6 5.5 2.3
2016-Dec-02 06:00N 45°30' W 073°30'0 0.0 220 / 9 5.4 2.1
2016-Dec-02 05:00N 45°30' W 073°30'0 0.0 230 / 8 5.4 2.2
2016-Dec-02 04:00N 45°30' W 073°30'0 0.0 240 / 7 5.3 2.5
2016-Dec-02 03:00N 45°30' W 073°30'0 0.0 230 / 9 5.4 2.7
2016-Dec-02 02:00N 45°30' W 073°30'0 0.0 230 / 10 5.3 2.8
2016-Dec-02 01:00N 45°30' W 073°30'0 0.0 230 / 11 5.1 3.1
2016-Dec-02 00:00N 45°30' W 073°30'0 0.0 230 / 12 5.1 3.2
2016-Dec-01 23:00N 45°30' W 073°30'0 0.0 220 / 9 5.4 3.7
2016-Dec-01 22:00N 45°30' W 073°30'0 0.0 220 / 11 6.1 3.0
2016-Dec-01 21:00N 45°30' W 073°30'0 0.0 220 / 10 6.8 2.8
2016-Dec-01 20:00N 45°30' W 073°30'0 0.0 210 / 9 6.8 4.1
2016-Dec-01 19:00N 45°30' W 073°30'0 0.0 210 / 13 7.3 4.3
2016-Dec-01 18:00N 45°30' W 073°30'0 0.0 210 / 11 7.0 4.7
2016-Dec-01 17:00N 45°30' W 073°30'0 0.0 210 / 11 7.3 4.8
2016-Dec-01 16:00N 45°30' W 073°30'0 0.0 210 / 11 8.0 6.0
2016-Dec-01 15:00N 45°30' W 073°30'0 0.0 220 / 5 8.0 7.2
2016-Dec-01 14:00N 45°30' W 073°30'0 0.0 200 / 11 9.0 6.8
2016-Dec-01 13:00N 45°30' W 073°30'0 0.0 170 / 6 8.5 8.4
2016-Dec-01 12:00N 45°30' W 073°30'0 0.0 170 / 7 8.5 8.4
2016-Dec-01 11:00N 45°30' W 073°30'0 0.0 150 / 7 7.9 7.8
2016-Dec-01 10:00N 45°30' W 073°30'0 0.0 090 / 5 5.8 5.8
2016-Dec-01 09:00N 45°30' W 073°30'0 0.0 030 / 3 5.7 5.7
2016-Dec-01 08:00N 45°30' W 073°30'0 0.0 020 / 3 6.4 6.4
2016-Dec-01 07:00N 45°30' W 073°30'0 0.0 100 / 5 7.8 5.6
2016-Dec-01 06:00N 45°30' W 073°30'0 0.0 110 / 6 7.4 6.3
2016-Dec-01 05:00N 45°30' W 073°30'0 0.0 100 / 5 8.0 7.0
2016-Dec-01 04:00N 45°30' W 073°30'0 0.0 090 / 6 7.9 7.9
2016-Dec-01 03:00N 45°30' W 073°30'0 0.0 090 / 6 8.4 8.4
2016-Dec-01 01:00N 45°30' W 073°30'0 0.0 350 / 6 5.2 5.2
2016-Dec-01 00:00N 45°30' W 073°30'0 0.0 350 / 5 5.8 5.8
2016-Nov-30 23:00N 45°30' W 073°30'0 0.0 010 / 6 5.7 5.7
2016-Nov-30 22:00N 45°30' W 073°30'0 0.0 360 / 6 5.2 5.2
2016-Nov-30 21:00N 45°30' W 073°30'0 0.0 360 / 7 4.2 4.2
2016-Nov-30 20:00N 45°30' W 073°30'0 0.0 360 / 8 3.8 3.9
2016-Nov-30 19:00N 45°30' W 073°30'0 0.0 010 / 5 3.5 3.5
2016-Nov-30 18:00N 45°30' W 073°30'0 0.0 360 / 7 2.9 2.9
2016-Nov-30 17:00N 45°30' W 073°30'0 0.0 360 / 7 2.6 2.7
2016-Nov-30 16:00N 45°30' W 073°30'0 0.0 360 / 4 2.5 2.6
2016-Nov-30 15:00N 45°30' W 073°30'0 0.0 030 / 5 2.3 2.4
2016-Nov-30 14:00N 45°30' W 073°30'0 0.0 020 / 5 2.1 2.2
2016-Nov-30 13:00N 45°30' W 073°30'0 0.0 360 / 7 2.0 2.1
2016-Nov-30 12:00N 45°30' W 073°30'0 0.0 360 / 7 2.0 2.1
2016-Nov-30 11:00N 45°30' W 073°30'0 0.0 360 / 6 2.1 2.1
2016-Nov-30 10:00N 45°30' W 073°30'0 0.0 010 / 4 2.1 2.1
2016-Nov-30 09:00N 45°30' W 073°30'0 0.0 350 / 6 1.9 1.9
2016-Nov-30 08:00N 45°30' W 073°30'0 0.0 360 / 6 2.0 2.0
2016-Nov-30 07:00N 45°30' W 073°30'0 0.0 360 / 4 1.8 1.9
2016-Nov-30 06:00N 45°30' W 073°30'0 0.0 350 / 9 1.8 1.8
2016-Nov-30 05:00N 45°30' W 073°30'0 0.0 350 / 9 1.8 1.8
2016-Nov-30 04:00N 45°30' W 073°30'0 0.0 350 / 9 2.2 2.3
2016-Nov-30 03:00N 45°30' W 073°30'0 0.0 340 / 9 2.7 2.7
2016-Nov-30 02:00N 45°30' W 073°30'0 0.0 360 / 9 2.7 2.8
2016-Nov-30 01:00N 45°30' W 073°30'0 0.0 350 / 11 2.5 2.6
2016-Nov-30 00:00N 45°30' W 073°30'0 0.0 350 / 9 2.4 2.5
2016-Nov-29 23:00N 45°30' W 073°30'0 0.0 350 / 9 2.6 2.6
2016-Nov-29 22:00N 45°30' W 073°30'0 0.0 350 / 8 2.5 2.5
2016-Nov-29 21:00N 45°30' W 073°30'0 0.0 350 / 9 2.5 2.5
2016-Nov-29 20:00N 45°30' W 073°30'0 0.0 350 / 8 2.1 2.2
2016-Nov-29 19:00N 45°30' W 073°30'0 0.0 350 / 7 2.1 2.1
2016-Nov-29 18:00N 45°30' W 073°30'0 0.0 350 / 4 1.6 1.6
2016-Nov-29 17:00N 45°30' W 073°30'0 0.0 360 / 6 1.3 1.3
2016-Nov-29 16:00N 45°30' W 073°30'0 0.0 360 / 6 0.9 0.8
2016-Nov-29 15:00N 45°30' W 073°30'0 0.0 010 / 4 0.6 0.5
2016-Nov-29 14:00N 45°30' W 073°30'0 0.0 010 / 4 -0.1-0.9
2016-Nov-29 13:00N 45°30' W 073°30'0 0.0 360 / 8 -0.2-2.6
2016-Nov-29 12:00N 45°30' W 073°30'0 0.0 010 / 5 -0.6-3.1
2016-Nov-29 11:00N 45°30' W 073°30'0 0.0 360 / 8 -1.0-3.3
2016-Nov-29 10:00N 45°30' W 073°30'0 0.0 360 / 8 -1.1-3.2
2016-Nov-29 09:00N 45°30' W 073°30'0 0.0 020 / 6 -1.2-3.3
2016-Nov-29 08:00N 45°30' W 073°30'0 0.0 020 / 5 -1.1-3.3
2016-Nov-29 07:00N 45°30' W 073°30'0 0.0 010 / 6 -1.2-3.3
2016-Nov-29 06:00N 45°30' W 073°30'0 0.0 010 / 5 -1.2-3.4
2016-Nov-29 05:00N 45°30' W 073°30'0 0.0 010 / 4 -1.6-3.5
2016-Nov-29 04:00N 45°30' W 073°30'0 0.0 360 / 4 -1.5-3.7
2016-Nov-29 03:00N 45°30' W 073°30'0 0.0 020 / 6 -1.6-3.7
2016-Nov-29 02:00N 45°30' W 073°30'0 0.0 020 / 6 -1.5-3.9
2016-Nov-29 01:00N 45°30' W 073°30'0 0.0 020 / 6 -1.2-4.0
2016-Nov-29 00:00N 45°30' W 073°30'0 0.0 020 / 4 -1.1-4.0
2016-Nov-28 23:00N 45°30' W 073°30'0 0.0 090 / 3 -0.9-4.2
2016-Nov-28 22:00N 45°30' W 073°30'0 0.0 110 / 1 -0.6-4.2
2016-Nov-28 21:00N 45°30' W 073°30'0 0.0 090 / 1 -0.2-4.3
2016-Nov-28 20:00N 45°30' W 073°30'0 0.0 110 / 2 -0.0-4.5
2016-Nov-28 19:00N 45°30' W 073°30'0 0.0 190 / 3 -0.3-5.0
2016-Nov-28 18:00N 45°30' W 073°30'0 0.0 210 / 5 -1.2-5.2
2016-Nov-28 17:00N 45°30' W 073°30'0 0.0 180 / 4 -0.8-4.6
2016-Nov-28 16:00N 45°30' W 073°30'0 0.0 190 / 3 -1.0-5.1
2016-Nov-28 15:00N 45°30' W 073°30'0 0.0 310 / 3 -1.1-5.4
2016-Nov-28 14:00N 45°30' W 073°30'0 0.0 310 / 5 -1.1-5.1
2016-Nov-28 13:00N 45°30' W 073°30'0 0.0 330 / 6 -0.8-5.2
2016-Nov-28 12:00N 45°30' W 073°30'0 0.0 310 / 5 -0.6-5.4
2016-Nov-28 11:00N 45°30' W 073°30'0 0.0 250 / 5 -0.9-5.9
2016-Nov-28 10:00N 45°30' W 073°30'0 0.0 230 / 3 -0.7-5.3
2016-Nov-28 09:00N 45°30' W 073°30'0 0.0 330 / 7 -0.5-5.6
2016-Nov-28 08:00N 45°30' W 073°30'0 0.0 280 / 5 -0.4-5.7
2016-Nov-28 07:00N 45°30' W 073°30'0 0.0 330 / 6 -0.1-5.2
2016-Nov-28 06:00N 45°30' W 073°30'0 0.0 260 / 3 -0.0-5.3
2016-Nov-28 05:00N 45°30' W 073°30'0 0.0 300 / 2 0.3-4.7
2016-Nov-28 04:00N 45°30' W 073°30'0 0.0 270 / 4 0.4-4.4
2016-Nov-28 03:00N 45°30' W 073°30'0 0.0 290 / 8 0.5-4.1
2016-Nov-28 02:00N 45°30' W 073°30'0 0.0 300 / 8 0.7-3.7
2016-Nov-28 01:00N 45°30' W 073°30'0 0.0 300 / 6 1.0-3.5
2016-Nov-28 00:00N 45°30' W 073°30'0 0.0 240 / 6 1.2-3.5
2016-Nov-27 23:00N 45°30' W 073°30'0 0.0 270 / 3 1.4-2.4
2016-Nov-27 22:00N 45°30' W 073°30'0 0.0 270 / 4 1.5-2.2
2016-Nov-27 21:00N 45°30' W 073°30'0 0.0 240 / 6 1.4-1.7
2016-Nov-27 20:00N 45°30' W 073°30'0 0.0 230 / 5 1.6-1.6
2016-Nov-27 19:00N 45°30' W 073°30'0 0.0 240 / 4 2.1-2.7
2016-Nov-27 18:00N 45°30' W 073°30'0 0.0 300 / 4 2.1-2.4
2016-Nov-27 17:00N 45°30' W 073°30'0 0.0 300 / 8 1.7-2.7
2016-Nov-27 16:00N 45°30' W 073°30'0 0.0 280 / 3 1.7-2.2
2016-Nov-27 15:00N 45°30' W 073°30'0 0.0 300 / 6 1.5-1.9
2016-Nov-27 14:00N 45°30' W 073°30'0 0.0 290 / 7 1.0-1.7
2016-Nov-27 13:00N 45°30' W 073°30'0 0.0 290 / 3 1.1-1.5
2016-Nov-27 12:00N 45°30' W 073°30'0 0.0 230 / 2 1.1-2.0
2016-Nov-27 11:00N 45°30' W 073°30'0 0.0 290 / 6 1.3-2.3
2016-Nov-27 10:00N 45°30' W 073°30'0 0.0 290 / 8 1.1-2.1
2016-Nov-27 09:00N 45°30' W 073°30'0 0.0 310 / 5 1.3-1.3
2016-Nov-27 08:00N 45°30' W 073°30'0 0.0 240 / 4 1.5-1.5
2016-Nov-27 07:00N 45°30' W 073°30'0 0.0 240 / 5 1.4-1.2
2016-Nov-27 06:00N 45°30' W 073°30'0 0.0 250 / 5 1.4-0.8
2016-Nov-27 05:00N 45°30' W 073°30'0 0.0 240 / 5 1.6-0.9
2016-Nov-27 04:00N 45°30' W 073°30'0 0.0 240 / 5 1.8-0.7
2016-Nov-27 03:00N 45°30' W 073°30'0 0.0 250 / 4 1.9-0.6
2016-Nov-27 02:00N 45°30' W 073°30'0 0.0 250 / 3 2.0-0.2
2016-Nov-27 01:00N 45°30' W 073°30'0 0.0 230 / 7 1.8-0.2
2016-Nov-27 00:00N 45°30' W 073°30'0 0.0 240 / 6 2.1-0.1
2016-Nov-26 23:00N 45°30' W 073°30'0 0.0 210 / 6 2.2-0.2
2016-Nov-26 22:00N 45°30' W 073°30'0 0.0 210 / 6 2.2-0.4
2016-Nov-26 21:00N 45°30' W 073°30'0 0.0 230 / 6 2.2 0.5
2016-Nov-26 20:00N 45°30' W 073°30'0 0.0 230 / 6 2.5 1.3
2016-Nov-26 19:00N 45°30' W 073°30'0 0.0 230 / 5 2.5 2.0
2016-Nov-26 18:00N 45°30' W 073°30'0 0.0 230 / 5 2.5 2.1
2016-Nov-26 17:00N 45°30' W 073°30'0 0.0 240 / 5 2.6 2.4
2016-Nov-26 16:00N 45°30' W 073°30'0 0.0 230 / 3 2.8 2.8
2016-Nov-26 15:00N 45°30' W 073°30'0 0.0 170 / 3 3.1 3.1
2016-Nov-26 14:00N 45°30' W 073°30'0 0.0 180 / 3 2.6 2.6
2016-Nov-26 13:00N 45°30' W 073°30'0 0.0 180 / 3 2.4 2.5
2016-Nov-26 12:00N 45°30' W 073°30'0 0.0 180 / 2 2.5 2.6
2016-Nov-26 11:00N 45°30' W 073°30'0 0.0 150 / 2 2.7 2.7
2016-Nov-26 10:00N 45°30' W 073°30'0 0.0 180 / 2 2.3 2.3
2016-Nov-26 09:00N 45°30' W 073°30'0 0.0 160 / 2 2.5 2.5
2016-Nov-26 08:00N 45°30' W 073°30'0 0.0 170 / 1 2.2 2.2
2016-Nov-26 07:00N 45°30' W 073°30'0 0.0 190 / 4 1.6 1.6
2016-Nov-26 06:00N 45°30' W 073°30'0 0.0 170 / 3 2.1 2.1
2016-Nov-26 05:00N 45°30' W 073°30'0 0.0 180 / 4 2.1 2.1
2016-Nov-26 04:00N 45°30' W 073°30'0 0.0 170 / 4 2.4 2.3
2016-Nov-26 03:00N 45°30' W 073°30'0 0.0 170 / 3 2.1 2.1
2016-Nov-26 02:00N 45°30' W 073°30'0 0.0 150 / 3 2.2 2.1
2016-Nov-26 01:00N 45°30' W 073°30'0 0.0 110 / 1 2.0 2.0
2016-Nov-26 00:00N 45°30' W 073°30'0 0.0 140 / 1 2.1 2.1
2016-Nov-25 23:00N 45°30' W 073°30'0 0.0 360 / 2 1.5 1.5
2016-Nov-25 22:00N 45°30' W 073°30'0 0.0 350 / 2 1.2 1.2
2016-Nov-25 21:00N 45°30' W 073°30'0 0.0 010 / 3 1.2 1.2
2016-Nov-25 20:00N 45°30' W 073°30'0 0.0 360 / 4 1.0 1.1
2016-Nov-25 19:00N 45°30' W 073°30'0 0.0 350 / 6 0.9 0.9
2016-Nov-25 18:00N 45°30' W 073°30'0 0.0 350 / 5 0.6 0.6
2016-Nov-25 17:00N 45°30' W 073°30'0 0.0 360 / 5 0.6 0.6
2016-Nov-25 16:00N 45°30' W 073°30'0 0.0 360 / 6 0.6 0.6
2016-Nov-25 15:00N 45°30' W 073°30'0 0.0 360 / 7 0.5 0.5
2016-Nov-25 14:00N 45°30' W 073°30'0 0.0 360 / 5 0.5 0.5
2016-Nov-25 13:00N 45°30' W 073°30'0 0.0 360 / 5 0.5 0.5
2016-Nov-25 12:00N 45°30' W 073°30'0 0.0 360 / 5 0.5 0.5
2016-Nov-25 11:00N 45°30' W 073°30'0 0.0 350 / 5 0.3 0.3
2016-Nov-25 10:00N 45°30' W 073°30'0 0.0 350 / 6 0.3 0.3
2016-Nov-25 09:00N 45°30' W 073°30'0 0.0 360 / 4 0.8 0.7
2016-Nov-25 08:00N 45°30' W 073°30'0 0.0 360 / 4 0.9 0.8
2016-Nov-25 07:00N 45°30' W 073°30'0 0.0 350 / 4 0.9 0.8
2016-Nov-25 06:00N 45°30' W 073°30'0 0.0 360 / 4 0.9 0.8
2016-Nov-25 05:00N 45°30' W 073°30'0 0.0 360 / 3 0.7 0.7
2016-Nov-25 04:00N 45°30' W 073°30'0 0.0 360 / 3 0.7 0.6
2016-Nov-25 03:00N 45°30' W 073°30'0 0.0 020 / 4 0.5 0.5
2016-Nov-25 02:00N 45°30' W 073°30'0 0.0 360 / 3 0.4 0.4
2016-Nov-25 01:00N 45°30' W 073°30'0 0.0 360 / 4 0.3 0.3
2016-Nov-25 00:00N 45°30' W 073°30'0 0.0 360 / 4 0.3 0.3
2016-Nov-24 23:00N 45°30' W 073°30'   010 / 4 0.2 0.2

Dump ship's entire track history